Terminal Aerodrome Forecast
Issued by NWS

Home | Current Version | Previous Version | Text Only | Print | Product List | Glossary On
Versions: 1 2 3 4 5 6 7 8 9 10 11 12 13 14 15 16 17 18 19 20 21 22 23
155
FTUS41 KPHI 240522
TAFPNE
TAF
KPNE 240522Z 2406/2506 26004KT 6SM -SHRA BR SCT040 BKN060
      TEMPO 2408/2411 5SM BR SCT020
     FM241200 33005KT P6SM SCT050 BKN150
     FM241800 32007KT P6SM BKN050 OVC120
     FM242200 32004KT P6SM SCT120=

USA.gov is the U.S. government's official web portal to all federal, state and local government web resources and services.